Terminal Aerodrome Forecast
Issued by NWS North Platte, NE

Home | Current Version | Previous Version | Text Only | Print | Product List | Glossary Off
Versions: 1 2 3 4 5 6 7 8 9 10 11 12 13 14 15 16 17 18 19

000
FTUS43 KLBF 221400 AAA
TAFVTN
TAF AMD
KVTN 221428Z 2214/2312 29010KT P6SM -SHRA SCT035 OVC090
      TEMPO 2215/2217 3SM -SHRA OVC035
     FM221800 32009KT P6SM BKN040
     FM230000 35006KT P6SM SKC=

USA.gov is the U.S. government's official web portal to all federal, state and local government web resources and services.